TimeMDT,TemperatureF,Dew PointF,Humidity,Sea Level PressureIn,VisibilityMPH,Wind Direction,Wind SpeedMPH,Gust SpeedMPH,PrecipitationIn,Events,Conditions,WindDirDegrees,DateUTC
12:05 AM,39.2,37.4,93,30.24,6.0,Calm,Calm,-,N/A,,Mostly Cloudy,0,2011-10-17 06:05:00
12:25 AM,39.2,37.4,93,30.25,1.8,Calm,Calm,-,N/A,,Overcast,0,2011-10-17 06:25:00
12:29 AM,39.2,37.4,93,30.25,1.0,Calm,Calm,-,N/A,,Overcast,0,2011-10-17 06:29:00
12:38 AM,39.2,37.4,93,30.25,0.8,Calm,Calm,-,N/A,,Mist,0,2011-10-17 06:38:00
12:53 AM,39.0,37.9,96,30.30,1.0,Calm,Calm,-,N/A,,Mist,0,2011-10-17 06:53:00
1:01 AM,39.2,37.4,93,30.26,0.5,Calm,Calm,-,N/A,Fog,Fog,0,2011-10-17 07:01:00
1:20 AM,37.4,37.4,100,30.26,0.2,Calm,Calm,-,N/A,Fog,Fog,0,2011-10-17 07:20:00
1:53 AM,37.9,37.0,97,30.32,0.2,Calm,Calm,-,N/A,Fog,Fog,0,2011-10-17 07:53:00
2:53 AM,37.9,37.0,97,30.35,0.2,Calm,Calm,-,N/A,Fog,Fog,0,2011-10-17 08:53:00
3:00 AM,37.4,35.6,93,30.30,0.8,NNW,3.5,-,N/A,,Mist,330,2011-10-17 09:00:00
3:53 AM,37.4,35.6,93,30.32,0.5,NNW,3.5,-,N/A,Fog,Fog,330,2011-10-17 09:53:00
3:59 AM,35.6,35.6,100,30.32,1.2,Calm,Calm,-,N/A,,Overcast,0,2011-10-17 09:59:00
4:02 AM,35.6,35.6,100,30.32,2.0,Calm,Calm,-,N/A,,Overcast,0,2011-10-17 10:02:00
4:09 AM,35.6,35.6,100,30.33,1.2,Calm,Calm,-,N/A,,Overcast,0,2011-10-17 10:09:00
4:11 AM,35.6,35.6,100,30.33,0.8,Calm,Calm,-,N/A,,Mist,0,2011-10-17 10:11:00
4:27 AM,35.6,35.6,100,30.33,1.2,Calm,Calm,-,N/A,,Overcast,0,2011-10-17 10:27:00
4:29 AM,35.6,35.6,100,30.33,2.5,NE,3.5,-,N/A,,Overcast,40,2011-10-17 10:29:00
4:34 AM,35.6,35.6,100,30.33,1.2,NE,4.6,-,N/A,,Overcast,50,2011-10-17 10:34:00
4:39 AM,35.6,35.6,100,30.34,0.8,NE,4.6,-,N/A,,Mist,50,2011-10-17 10:39:00
4:50 AM,35.6,35.6,100,30.33,1.2,NE,3.5,-,N/A,,Overcast,50,2011-10-17 10:50:00
4:53 AM,36.0,35.1,97,30.39,1.8,NE,4.6,-,N/A,,Overcast,50,2011-10-17 10:53:00
5:00 AM,35.6,35.6,100,30.34,2.5,ENE,3.5,-,N/A,,Overcast,70,2011-10-17 11:00:00
5:23 AM,35.6,35.6,100,30.36,5.0,Calm,Calm,-,N/A,,Overcast,0,2011-10-17 11:23:00
5:53 AM,36.0,34.0,93,30.41,8.0,ENE,4.6,-,N/A,,Overcast,60,2011-10-17 11:53:00
6:53 AM,37.0,35.1,93,30.44,10.0,Calm,Calm,-,N/A,,Overcast,0,2011-10-17 12:53:00
7:08 AM,35.6,35.6,100,30.39,10.0,Calm,Calm,-,N/A,,Overcast,0,2011-10-17 13:08:00
7:53 AM,35.6,33.8,93,30.39,10.0,Calm,Calm,-,N/A,,Overcast,0,2011-10-17 13:53:00
8:12 AM,35.6,35.6,100,30.40,8.0,Calm,Calm,-,N/A,,Overcast,0,2011-10-17 14:12:00
8:53 AM,37.0,35.1,93,30.48,7.0,Calm,Calm,-,N/A,,Overcast,0,2011-10-17 14:53:00
9:39 AM,37.4,33.8,87,30.43,9.0,Variable,3.5,-,N/A,,Overcast,0,2011-10-17 15:39:00
9:53 AM,37.0,35.1,93,30.51,10.0,North,4.6,-,N/A,,Overcast,360,2011-10-17 15:53:00
10:53 AM,37.9,35.1,89,30.51,10.0,Calm,Calm,-,N/A,,Overcast,0,2011-10-17 16:53:00
11:53 AM,39.9,35.1,83,30.50,10.0,Calm,Calm,-,N/A,,Overcast,0,2011-10-17 17:53:00
12:53 PM,43.0,36.0,76,30.50,10.0,Calm,Calm,-,N/A,,Mostly Cloudy,0,2011-10-17 18:53:00
1:10 PM,42.8,37.4,81,30.44,10.0,Calm,Calm,-,N/A,,Scattered Clouds,0,2011-10-17 19:10:00
1:53 PM,45.0,37.0,74,30.47,10.0,Calm,Calm,-,N/A,,Mostly Cloudy,0,2011-10-17 19:53:00
2:53 PM,46.0,36.0,68,30.45,10.0,Calm,Calm,-,N/A,,Mostly Cloudy,0,2011-10-17 20:53:00
3:53 PM,48.9,35.1,59,30.42,10.0,Calm,Calm,-,N/A,,Partly Cloudy,0,2011-10-17 21:53:00
4:53 PM,51.1,34.0,52,30.42,10.0,WNW,3.5,-,N/A,,Scattered Clouds,290,2011-10-17 22:53:00
5:53 PM,50.0,35.1,57,30.42,10.0,SW,3.5,-,N/A,,Clear,220,2011-10-17 23:53:00
6:53 PM,46.0,36.0,68,30.43,10.0,Calm,Calm,-,N/A,,Clear,0,2011-10-18 00:53:00
7:53 PM,41.0,34.0,76,30.48,10.0,NNW,4.6,-,N/A,,Clear,340,2011-10-18 01:53:00
8:53 PM,39.0,34.0,82,30.48,10.0,West,3.5,-,N/A,,Clear,280,2011-10-18 02:53:00
9:53 PM,37.9,34.0,86,30.49,10.0,NW,3.5,-,N/A,,Clear,310,2011-10-18 03:53:00
10:53 PM,37.0,32.0,82,30.51,10.0,Calm,Calm,-,N/A,,Clear,0,2011-10-18 04:53:00
11:53 PM,35.6,33.8,93,30.46,10.0,Calm,Calm,-,N/A,,Clear,0,2011-10-18 05:53:00